Time;durP1;ratioP1;P1;durP2;ratioP2;P2;SDS_P1;SDS_P2;PMS_P1;PMS_P2;Temp;Humidity;BMP_temperature;BMP_pressure;BME280_temperature;BME280_humidity;BME280_pressure;Samples;Min_cycle;Max_cycle;Signal;HPM_P1;HPM_P2
2021/07/04 00:00:16;;;;;;;10.75;7.43;;;17.90;87.10;;;;;;5028562;28;20045;-74
2021/07/04 00:02:42;;;;;;;10.52;8.30;;;17.80;87.10;;;;;;5030144;28;20037;-79
2021/07/04 00:05:12;;;;;;;9.38;6.88;;;17.90;87.00;;;;;;5029710;28;20036;-73
2021/07/04 00:07:42;;;;;;;10.93;8.23;;;17.90;87.10;;;;;;5030059;28;20099;-74
2021/07/04 00:10:13;;;;;;;9.45;7.55;;;18.00;87.10;;;;;;5020124;28;20042;-75
2021/07/04 00:12:39;;;;;;;11.93;8.00;;;17.90;87.20;;;;;;5011474;28;20030;-74
2021/07/04 00:15:09;;;;;;;10.07;7.97;;;18.00;87.20;;;;;;5009701;28;20036;-75
2021/07/04 00:17:35;;;;;;;11.00;7.75;;;18.00;87.10;;;;;;5028705;28;20034;-75
2021/07/04 00:20:04;;;;;;;11.18;7.50;;;18.00;87.10;;;;;;5020036;28;20054;-75
2021/07/04 00:22:29;;;;;;;10.13;7.57;;;18.00;87.10;;;;;;5027428;28;20116;-75
2021/07/04 00:24:55;;;;;;;11.23;7.88;;;18.00;87.00;;;;;;5047872;28;20105;-74
2021/07/04 00:27:20;;;;;;;10.25;8.35;;;18.00;86.90;;;;;;5028338;28;20380;-75
2021/07/04 00:29:46;;;;;;;10.68;7.82;;;17.90;87.00;;;;;;5048395;28;20039;-74
2021/07/04 00:32:12;;;;;;;10.45;8.13;;;17.90;87.10;;;;;;5030880;28;20073;-74
2021/07/04 00:34:37;;;;;;;10.40;8.32;;;17.90;87.10;;;;;;5028863;28;20069;-75
2021/07/04 00:37:03;;;;;;;10.50;7.80;;;17.90;87.10;;;;;;5014981;28;20061;-74
2021/07/04 00:39:29;;;;;;;11.57;8.00;;;17.80;87.20;;;;;;5010249;28;20027;-75
2021/07/04 00:41:54;;;;;;;10.20;7.95;;;17.80;87.00;;;;;;5010401;28;20112;-75
2021/07/04 00:44:21;;;;;;;10.43;8.70;;;17.70;87.10;;;;;;5008125;28;20483;-76
2021/07/04 00:46:47;;;;;;;10.10;8.07;;;17.70;87.10;;;;;;5023114;28;20033;-74
2021/07/04 00:49:12;;;;;;;11.27;8.75;;;17.70;87.20;;;;;;5022590;28;20059;-73
2021/07/04 00:51:38;;;;;;;10.82;8.00;;;17.70;87.20;;;;;;5015324;28;20030;-74
2021/07/04 00:54:04;;;;;;;11.30;8.15;;;17.70;87.20;;;;;;5017742;28;20038;-76
2021/07/04 00:56:30;;;;;;;10.27;7.60;;;17.70;87.10;;;;;;5012673;28;20482;-74
2021/07/04 00:58:55;;;;;;;10.70;8.60;;;17.70;87.20;;;;;;5013766;28;20022;-75
2021/07/04 01:01:21;;;;;;;11.00;8.07;;;17.60;87.40;;;;;;5023772;28;20046;-73
2021/07/04 01:03:47;;;;;;;10.02;8.18;;;17.70;87.30;;;;;;5019793;28;20033;-73
2021/07/04 01:06:12;;;;;;;9.20;7.43;;;17.70;87.30;;;;;;5012892;28;20042;-75
2021/07/04 01:08:38;;;;;;;11.02;8.50;;;17.80;87.40;;;;;;5013505;28;20084;-75
2021/07/04 01:11:04;;;;;;;9.23;7.35;;;17.80;87.30;;;;;;5011680;28;20421;-75
2021/07/04 01:13:30;;;;;;;11.15;8.90;;;17.80;87.30;;;;;;5012285;28;20109;-75
2021/07/04 01:15:57;;;;;;;13.10;8.60;;;17.80;87.40;;;;;;5015100;28;20088;-75
2021/07/04 01:18:23;;;;;;;11.23;7.68;;;17.80;87.50;;;;;;5032525;28;20037;-75
2021/07/04 01:20:51;;;;;;;10.88;8.55;;;17.80;87.50;;;;;;5020318;28;20489;-75
2021/07/04 01:23:17;;;;;;;12.82;9.93;;;17.90;87.40;;;;;;5028054;28;20064;-75
2021/07/04 01:25:49;;;;;;;11.52;8.20;;;17.90;87.30;;;;;;5046781;28;20035;-74
2021/07/04 01:28:19;;;;;;;10.90;8.52;;;17.80;87.30;;;;;;5030476;28;20068;-73
2021/07/04 01:30:49;;;;;;;11.18;8.65;;;17.90;87.20;;;;;;5017290;28;20117;-76
2021/07/04 01:33:15;;;;;;;11.73;8.65;;;17.90;87.20;;;;;;5031702;28;20080;-73
2021/07/04 01:35:40;;;;;;;10.48;8.68;;;17.90;87.20;;;;;;5021011;28;20033;-76
2021/07/04 01:38:06;;;;;;;11.73;8.88;;;17.90;87.20;;;;;;5031159;28;20045;-75
2021/07/04 01:40:33;;;;;;;13.27;9.25;;;17.90;87.20;;;;;;5031325;28;20044;-73
2021/07/04 01:43:01;;;;;;;11.85;9.15;;;17.90;87.30;;;;;;5031720;28;20105;-78
2021/07/04 01:45:27;;;;;;;12.13;9.82;;;17.90;87.30;;;;;;5030571;28;20554;-76
2021/07/04 01:47:56;;;;;;;12.80;9.38;;;17.90;87.30;;;;;;5032857;28;20037;-76
2021/07/04 01:50:27;;;;;;;11.43;9.15;;;17.90;87.00;;;;;;5018440;28;20069;-73
2021/07/04 01:52:53;;;;;;;10.52;8.43;;;17.80;87.10;;;;;;5014288;28;20477;-74
2021/07/04 01:55:20;;;;;;;10.82;8.80;;;17.70;87.20;;;;;;5051606;28;20061;-74
2021/07/04 01:57:47;;;;;;;11.00;9.18;;;17.70;87.30;;;;;;5052594;28;20044;-74
2021/07/04 02:00:13;;;;;;;10.85;8.38;;;17.70;87.40;;;;;;5034008;28;20046;-73
2021/07/04 02:02:40;;;;;;;12.10;9.35;;;17.60;87.50;;;;;;5032509;28;20129;-75
2021/07/04 02:05:07;;;;;;;10.73;8.27;;;17.60;87.50;;;;;;5030709;28;20061;-74
2021/07/04 02:07:33;;;;;;;11.65;9.68;;;17.60;87.60;;;;;;5031062;28;20033;-75
2021/07/04 02:10:06;;;;;;;13.00;9.90;;;17.60;87.70;;;;;;5032393;28;20057;-74
2021/07/04 02:12:31;;;;;;;13.05;10.57;;;17.60;87.80;;;;;;5012235;28;20034;-74
2021/07/04 02:14:57;;;;;;;11.13;8.90;;;17.60;87.90;;;;;;5011150;28;20488;-74
2021/07/04 02:17:23;;;;;;;12.32;10.02;;;17.60;87.90;;;;;;5030534;28;20911;-74
2021/07/04 02:19:48;;;;;;;15.18;11.18;;;17.60;87.70;;;;;;5020018;28;20056;-73
2021/07/04 02:22:14;;;;;;;11.75;9.60;;;17.60;87.70;;;;;;5030199;28;20033;-75
2021/07/04 02:24:40;;;;;;;11.70;9.57;;;17.60;87.80;;;;;;5038755;28;20039;-74
2021/07/04 02:27:07;;;;;;;13.10;10.73;;;17.50;87.80;;;;;;5032372;28;20032;-74
2021/07/04 02:29:32;;;;;;;13.27;10.68;;;17.50;87.80;;;;;;5038532;28;20115;-76
2021/07/04 02:31:58;;;;;;;12.40;9.73;;;17.50;87.90;;;;;;5030373;28;20450;-74
2021/07/04 02:34:27;;;;;;;13.50;10.30;;;17.50;88.00;;;;;;5030367;28;20034;-75
2021/07/04 02:36:53;;;;;;;13.98;10.52;;;17.50;88.20;;;;;;5021515;28;20037;-75
2021/07/04 02:39:19;;;;;;;13.40;10.63;;;17.50;88.30;;;;;;5009998;28;20374;-75
2021/07/04 02:41:44;;;;;;;12.82;10.45;;;17.50;88.30;;;;;;5011897;28;20022;-74
2021/07/04 02:44:10;;;;;;;11.98;9.52;;;17.60;88.20;;;;;;5017618;28;20087;-74
2021/07/04 02:46:37;;;;;;;14.15;10.25;;;17.50;88.20;;;;;;5018527;28;20509;-74
2021/07/04 02:49:03;;;;;;;12.05;9.38;;;17.50;88.20;;;;;;5019867;28;20045;-74
2021/07/04 02:51:31;;;;;;;12.65;9.95;;;17.50;88.10;;;;;;5029829;28;20053;-74
2021/07/04 02:53:56;;;;;;;11.63;10.07;;;17.50;88.20;;;;;;5037052;28;20026;-74
2021/07/04 02:56:22;;;;;;;12.88;9.30;;;17.50;87.90;;;;;;5012276;28;20436;-77
2021/07/04 02:58:48;;;;;;;12.38;9.45;;;17.50;87.90;;;;;;5010624;28;20418;-76
2021/07/04 03:01:13;;;;;;;13.02;10.38;;;17.50;88.00;;;;;;5018637;28;20044;-75
2021/07/04 03:03:39;;;;;;;12.00;10.10;;;17.50;88.10;;;;;;5030109;28;20404;-74
2021/07/04 03:06:05;;;;;;;15.20;11.40;;;17.50;88.10;;;;;;5021115;28;20448;-74
2021/07/04 03:08:30;;;;;;;13.85;11.95;;;17.50;88.10;;;;;;5009576;28;20038;-76
2021/07/04 03:10:56;;;;;;;15.73;11.90;;;17.50;88.10;;;;;;5015482;28;20090;-74
2021/07/04 03:13:22;;;;;;;16.35;12.10;;;17.50;88.30;;;;;;5029892;28;20034;-74
2021/07/04 03:15:48;;;;;;;14.15;11.55;;;17.50;88.30;;;;;;5030994;28;20381;-75
2021/07/04 03:18:14;;;;;;;15.40;12.10;;;17.50;88.30;;;;;;5012835;28;20042;-74
2021/07/04 03:20:39;;;;;;;13.57;11.68;;;17.50;88.40;;;;;;5009754;28;20488;-75
2021/07/04 03:23:05;;;;;;;14.82;12.02;;;17.50;88.40;;;;;;5015526;28;20045;-74
2021/07/04 03:25:31;;;;;;;16.83;13.13;;;17.50;88.50;;;;;;5050643;28;20025;-75
2021/07/04 03:27:57;;;;;;;15.27;12.80;;;17.50;88.50;;;;;;5036654;28;20140;-75
2021/07/04 03:30:23;;;;;;;15.30;13.23;;;17.50;88.60;;;;;;5028762;28;20049;-73
2021/07/04 03:32:49;;;;;;;15.82;13.27;;;17.50;88.60;;;;;;5011117;28;20033;-75
2021/07/04 03:35:17;;;;;;;15.48;12.93;;;17.50;88.60;;;;;;5009260;28;20198;-75
2021/07/04 03:37:44;;;;;;;14.15;11.30;;;17.40;88.50;;;;;;5009347;28;20057;-74
2021/07/04 03:40:12;;;;;;;16.45;13.32;;;17.40;88.50;;;;;;5025046;28;20033;-74
2021/07/04 03:42:38;;;;;;;14.15;12.07;;;17.40;88.50;;;;;;5015324;28;20490;-75
2021/07/04 03:45:05;;;;;;;15.18;12.35;;;17.40;88.60;;;;;;5009251;28;20427;-75
2021/07/04 03:47:31;;;;;;;14.13;11.25;;;17.40;88.60;;;;;;5030049;28;20105;-75
2021/07/04 03:49:57;;;;;;;14.95;11.82;;;17.40;88.60;;;;;;5023215;28;20038;-74
2021/07/04 03:52:23;;;;;;;16.27;12.23;;;17.40;88.60;;;;;;5009982;28;20451;-74
2021/07/04 03:54:49;;;;;;;14.35;12.02;;;17.40;88.50;;;;;;5043651;28;20025;-74
2021/07/04 03:57:24;;;;;;;14.73;11.95;;;17.50;88.50;;;;;;5026515;28;20045;-75
2021/07/04 03:59:55;;;;;;;14.93;11.93;;;17.50;88.60;;;;;;5016633;28;20022;-75
2021/07/04 04:02:21;;;;;;;15.27;12.60;;;17.50;88.50;;;;;;5011450;28;20056;-76
2021/07/04 04:04:47;;;;;;;14.88;11.43;;;17.60;88.50;;;;;;5009337;28;20358;-75
2021/07/04 04:07:13;;;;;;;14.45;11.65;;;17.60;88.40;;;;;;5008355;28;20037;-77
2021/07/04 04:09:38;;;;;;;15.45;12.75;;;17.70;88.30;;;;;;5010493;28;20408;-74
2021/07/04 04:12:05;;;;;;;15.32;12.52;;;17.70;88.10;;;;;;5008428;28;20044;-74
2021/07/04 04:14:31;;;;;;;15.45;12.05;;;17.80;88.20;;;;;;5008830;28;20117;-74
2021/07/04 04:16:57;;;;;;;15.52;12.32;;;17.90;87.80;;;;;;5025749;28;20069;-75
2021/07/04 04:19:22;;;;;;;15.88;12.93;;;17.90;87.50;;;;;;5024850;28;20379;-74
2021/07/04 04:21:48;;;;;;;14.40;11.95;;;17.90;87.40;;;;;;5010368;28;20025;-74
2021/07/04 04:24:14;;;;;;;14.00;11.23;;;17.90;87.50;;;;;;5032927;28;20124;-74
2021/07/04 04:26:40;;;;;;;13.55;11.05;;;18.00;87.40;;;;;;5045896;28;20053;-74
2021/07/04 04:29:06;;;;;;;15.40;12.18;;;18.10;87.40;;;;;;5039507;28;20029;-74
2021/07/04 04:31:31;;;;;;;16.80;13.27;;;18.10;87.10;;;;;;5032413;28;20038;-75
2021/07/04 04:33:57;;;;;;;14.75;12.10;;;18.20;86.70;;;;;;5033212;28;20029;-75
2021/07/04 04:36:24;;;;;;;16.88;13.13;;;18.30;86.70;;;;;;5033480;28;20432;-78
2021/07/04 04:38:50;;;;;;;15.07;12.60;;;18.50;86.30;;;;;;5033892;28;20040;-74
2021/07/04 04:41:15;;;;;;;15.40;12.63;;;18.70;85.80;;;;;;5033461;28;20042;-75
2021/07/04 04:43:41;;;;;;;15.50;12.35;;;18.90;85.10;;;;;;5030418;28;20481;-74
2021/07/04 04:46:07;;;;;;;14.52;12.30;;;19.10;84.80;;;;;;5023057;28;20030;-74
2021/07/04 04:48:32;;;;;;;13.32;11.43;;;19.30;84.30;;;;;;5017739;28;20103;-75
2021/07/04 04:50:58;;;;;;;15.93;12.00;;;19.40;83.90;;;;;;5016528;28;20022;-74
2021/07/04 04:53:24;;;;;;;15.98;12.48;;;19.50;84.00;;;;;;5024450;28;20206;-74
2021/07/04 04:55:49;;;;;;;14.50;11.52;;;19.50;83.70;;;;;;5041323;28;20034;-74
2021/07/04 04:58:15;;;;;;;16.15;12.50;;;19.40;83.70;;;;;;5013054;28;20125;-74
2021/07/04 05:00:40;;;;;;;15.25;12.65;;;19.50;84.20;;;;;;5018754;28;20036;-74
2021/07/04 05:03:06;;;;;;;17.30;13.85;;;19.60;84.10;;;;;;5032260;28;20030;-74
2021/07/04 05:05:34;;;;;;;14.05;11.68;;;19.80;83.20;;;;;;5033511;28;20029;-75
2021/07/04 05:07:59;;;;;;;14.52;11.60;;;20.00;82.90;;;;;;5016539;28;20551;-75
2021/07/04 05:10:26;;;;;;;15.02;12.18;;;20.10;82.10;;;;;;5012722;28;20049;-74
2021/07/04 05:12:51;;;;;;;14.45;12.13;;;20.30;81.50;;;;;;5013565;28;20033;-74
2021/07/04 05:15:17;;;;;;;14.10;12.57;;;20.30;80.80;;;;;;5014455;28;20038;-75
2021/07/04 05:17:43;;;;;;;14.60;11.65;;;20.30;81.20;;;;;;5029060;28;20423;-75
2021/07/04 05:20:10;;;;;;;16.55;12.57;;;20.40;81.50;;;;;;5021450;28;20050;-77
2021/07/04 05:22:36;;;;;;;16.60;12.73;;;20.40;81.30;;;;;;5010580;28;20489;-74
2021/07/04 05:25:03;;;;;;;15.82;13.07;;;20.40;81.40;;;;;;5049699;28;20112;-75
2021/07/04 05:27:29;;;;;;;15.75;12.35;;;20.30;81.10;;;;;;5050226;28;20047;-75
2021/07/04 05:29:55;;;;;;;14.00;11.70;;;20.20;81.50;;;;;;5032288;28;20520;-75
2021/07/04 05:32:21;;;;;;;14.77;12.32;;;20.10;82.10;;;;;;5019771;28;20421;-74
2021/07/04 05:34:46;;;;;;;15.35;12.35;;;20.10;82.30;;;;;;5010507;28;20462;-74
2021/07/04 05:37:12;;;;;;;14.73;12.18;;;20.00;82.10;;;;;;5009707;28;20084;-74
2021/07/04 05:39:38;;;;;;;16.27;13.13;;;19.90;82.50;;;;;;5013826;28;20041;-72
2021/07/04 05:42:05;;;;;;;17.27;13.13;;;19.80;82.90;;;;;;5010298;28;20046;-72
2021/07/04 05:44:30;;;;;;;16.40;13.45;;;19.90;83.00;;;;;;5010217;28;20056;-71
2021/07/04 05:46:56;;;;;;;13.65;11.60;;;19.80;82.90;;;;;;5026617;28;20071;-72
2021/07/04 05:49:23;;;;;;;14.70;12.10;;;19.70;83.00;;;;;;5027814;28;20037;-71
2021/07/04 05:51:49;;;;;;;15.07;12.43;;;19.70;82.90;;;;;;5023745;28;20022;-72
2021/07/04 05:54:15;;;;;;;15.40;11.98;;;19.70;83.00;;;;;;5041993;28;20498;-72
2021/07/04 05:56:41;;;;;;;15.60;13.90;;;19.80;83.10;;;;;;5051229;28;20032;-75
2021/07/04 05:59:07;;;;;;;12.40;10.77;;;19.80;82.30;;;;;;5049426;28;20036;-73
2021/07/04 06:01:34;;;;;;;15.32;12.70;;;19.80;82.70;;;;;;5036788;28;20531;-71
2021/07/04 06:03:59;;;;;;;13.52;11.05;;;19.70;82.80;;;;;;5024705;28;20149;-71
2021/07/04 06:06:25;;;;;;;16.50;12.07;;;19.70;83.00;;;;;;5011055;28;20113;-71
2021/07/04 06:08:51;;;;;;;14.75;11.93;;;19.80;83.10;;;;;;5010028;28;20049;-74
2021/07/04 06:11:18;;;;;;;14.27;12.30;;;19.80;83.20;;;;;;5009157;28;20034;-73
2021/07/04 06:13:44;;;;;;;14.70;11.85;;;19.80;83.10;;;;;;5011301;28;20121;-74
2021/07/04 06:16:10;;;;;;;15.52;12.00;;;19.90;83.10;;;;;;5018357;28;20120;-72
2021/07/04 06:18:36;;;;;;;15.18;12.15;;;19.90;83.40;;;;;;5029096;28;20400;-71
2021/07/04 06:21:02;;;;;;;14.85;12.18;;;19.90;82.90;;;;;;4986596;28;1278750;-71
2021/07/04 06:23:28;;;;;;;17.02;13.77;;;20.00;82.60;;;;;;5033861;28;20489;-72
2021/07/04 06:25:54;;;;;;;15.23;13.07;;;20.10;82.60;;;;;;5032050;28;20033;-72
2021/07/04 06:28:19;;;;;;;15.05;11.90;;;20.10;82.10;;;;;;5025723;28;20030;-73
2021/07/04 06:30:45;;;;;;;14.52;11.05;;;20.30;81.90;;;;;;5017136;28;20057;-71
2021/07/04 06:33:11;;;;;;;14.25;10.63;;;20.20;79.90;;;;;;5012828;28;20053;-72
2021/07/04 06:35:38;;;;;;;12.43;10.02;;;20.20;80.60;;;;;;5015365;28;20041;-72
2021/07/04 06:38:03;;;;;;;14.02;10.80;;;20.40;79.90;;;;;;5020508;28;20538;-72
2021/07/04 06:40:29;;;;;;;14.70;10.65;;;20.40;79.70;;;;;;5013467;28;20385;-72
2021/07/04 06:42:55;;;;;;;13.70;10.52;;;20.30;79.20;;;;;;5011847;28;20060;-72
2021/07/04 06:45:21;;;;;;;12.85;9.10;;;20.10;79.70;;;;;;5011814;28;20384;-73
2021/07/04 06:47:48;;;;;;;13.10;9.68;;;20.10;79.60;;;;;;5022058;28;20038;-71
2021/07/04 06:50:16;;;;;;;12.27;9.85;;;20.20;79.60;;;;;;5019369;28;20481;-73
2021/07/04 06:52:43;;;;;;;11.95;9.27;;;20.30;79.10;;;;;;5010089;28;20022;-71
2021/07/04 06:55:09;;;;;;;10.73;8.60;;;20.30;79.30;;;;;;5016497;28;20119;-73
2021/07/04 06:57:35;;;;;;;12.18;9.35;;;20.40;79.30;;;;;;5014725;28;20168;-71
2021/07/04 07:00:12;;;;;;;10.70;8.20;;;20.50;78.80;;;;;;5020542;28;20483;-75
2021/07/04 07:02:38;;;;;;;10.18;8.32;;;20.60;77.00;;;;;;5011222;28;20128;-72
2021/07/04 07:05:09;;;;;;;10.90;7.30;;;20.80;76.80;;;;;;5017282;28;20034;-71
2021/07/04 07:07:34;;;;;;;10.32;7.68;;;20.90;75.70;;;;;;5012977;28;20587;-74
2021/07/04 07:10:00;;;;;;;11.82;8.85;;;21.00;75.20;;;;;;5014327;28;20124;-72
2021/07/04 07:12:26;;;;;;;10.35;7.22;;;21.40;74.40;;;;;;5041676;28;20084;-71
2021/07/04 07:14:52;;;;;;;11.02;8.70;;;21.50;72.20;;;;;;5010960;28;20040;-71
2021/07/04 07:17:19;;;;;;;10.43;7.82;;;21.50;72.30;;;;;;5011991;28;20069;-72
2021/07/04 07:19:46;;;;;;;8.23;5.82;;;21.50;71.90;;;;;;5014963;28;20543;-73
2021/07/04 07:22:11;;;;;;;7.25;4.68;;;21.40;72.30;;;;;;5020996;28;20037;-71
2021/07/04 07:24:37;;;;;;;8.40;6.10;;;21.40;70.60;;;;;;5024192;28;20026;-73
2021/07/04 07:27:03;;;;;;;11.43;7.47;;;21.40;71.60;;;;;;5018355;28;20053;-71
2021/07/04 07:29:29;;;;;;;9.55;6.75;;;21.30;73.70;;;;;;5027330;28;20048;-72
2021/07/04 07:31:54;;;;;;;9.52;6.97;;;21.30;72.70;;;;;;5012864;28;20026;-72
2021/07/04 07:34:21;;;;;;;10.55;8.75;;;21.30;72.50;;;;;;5008779;28;20408;-76
2021/07/04 07:36:47;;;;;;;10.43;8.60;;;21.20;73.30;;;;;;5010064;28;20065;-71
2021/07/04 07:39:13;;;;;;;12.82;11.07;;;21.30;73.30;;;;;;5010814;28;20042;-72
2021/07/04 07:41:39;;;;;;;14.68;13.18;;;21.20;72.60;;;;;;5011857;28;20382;-71
2021/07/04 07:44:05;;;;;;;10.68;7.68;;;21.10;73.30;;;;;;5024973;28;20034;-71
2021/07/04 07:46:30;;;;;;;10.20;7.65;;;21.20;71.30;;;;;;5012570;28;20057;-74
2021/07/04 07:48:56;;;;;;;10.57;6.57;;;21.00;72.40;;;;;;5015602;28;20517;-72
2021/07/04 07:51:22;;;;;;;8.68;6.32;;;21.10;72.70;;;;;;5016436;28;20030;-72
2021/07/04 07:53:47;;;;;;;8.50;4.93;;;21.10;73.40;;;;;;5022869;28;20040;-72
2021/07/04 07:56:13;;;;;;;7.63;5.00;;;20.90;72.00;;;;;;5020648;28;20049;-71
2021/07/04 07:58:43;;;;;;;7.82;4.97;;;20.80;72.20;;;;;;5013282;28;20440;-74
2021/07/04 08:01:08;;;;;;;7.75;5.47;;;20.80;73.40;;;;;;5012904;28;20427;-73
2021/07/04 08:03:34;;;;;;;10.90;6.43;;;20.80;74.40;;;;;;5008588;28;20058;-73
2021/07/04 08:06:00;;;;;;;8.63;6.38;;;20.80;74.90;;;;;;5009804;28;21132;-73
2021/07/04 08:08:26;;;;;;;11.27;8.18;;;20.90;74.70;;;;;;5023125;28;20073;-72
2021/07/04 08:10:51;;;;;;;10.55;7.75;;;20.80;74.70;;;;;;5018398;28;20037;-72
2021/07/04 08:13:17;;;;;;;10.13;7.03;;;20.70;75.10;;;;;;5010080;28;20442;-73
2021/07/04 08:15:42;;;;;;;9.32;6.07;;;20.60;75.30;;;;;;5014875;28;20396;-72
2021/07/04 08:18:08;;;;;;;8.60;6.03;;;20.50;74.70;;;;;;5015983;28;20045;-73
2021/07/04 08:20:34;;;;;;;9.15;6.28;;;20.50;75.40;;;;;;5015397;28;20046;-73
2021/07/04 08:23:00;;;;;;;9.30;5.90;;;20.50;75.60;;;;;;5010873;28;20030;-72
2021/07/04 08:25:26;;;;;;;9.38;6.82;;;20.30;75.50;;;;;;5009023;28;20030;-72
2021/07/04 08:27:51;;;;;;;16.10;14.40;;;20.30;75.30;;;;;;5021887;28;20036;-72
2021/07/04 08:30:17;;;;;;;14.38;12.85;;;20.30;76.20;;;;;;5025301;28;20362;-73
2021/07/04 08:32:44;;;;;;;11.82;7.57;;;20.50;76.70;;;;;;5013018;28;20297;-71
2021/07/04 08:35:10;;;;;;;8.35;4.63;;;20.40;75.50;;;;;;5007924;28;20484;-73
2021/07/04 08:37:37;;;;;;;7.15;4.35;;;20.20;74.00;;;;;;5008251;28;20026;-72
2021/07/04 08:40:04;;;;;;;9.60;5.82;;;20.20;74.10;;;;;;5007767;28;20266;-72
2021/07/04 08:42:30;;;;;;;10.20;6.93;;;20.10;74.60;;;;;;5017043;28;20026;-72
2021/07/04 08:44:56;;;;;;;9.95;7.90;;;20.00;76.10;;;;;;5008482;28;20037;-72
2021/07/04 08:47:24;;;;;;;12.27;8.57;;;20.00;76.80;;;;;;5016594;28;20129;-72
2021/07/04 08:49:53;;;;;;;10.43;8.05;;;19.80;77.10;;;;;;5009818;28;20046;-73
2021/07/04 08:52:19;;;;;;;11.10;8.50;;;19.80;78.60;;;;;;5009140;28;20033;-73
2021/07/04 08:54:45;;;;;;;14.07;9.30;;;19.60;79.20;;;;;;5020249;28;20041;-73
2021/07/04 08:57:11;;;;;;;13.80;10.18;;;19.60;79.50;;;;;;5018015;28;20409;-74
2021/07/04 08:59:38;;;;;;;11.65;8.30;;;19.30;80.80;;;;;;5011719;28;20046;-74
2021/07/04 09:02:05;;;;;;;13.52;8.65;;;19.20;81.30;;;;;;5011413;28;20037;-73
2021/07/04 09:04:31;;;;;;;11.73;7.90;;;19.10;81.40;;;;;;5009637;28;20034;-73
2021/07/04 09:06:56;;;;;;;11.52;7.28;;;19.10;82.30;;;;;;5008069;28;20030;-72
2021/07/04 09:09:30;;;;;;;10.52;7.07;;;18.90;81.80;;;;;;5025363;28;20033;-75
2021/07/04 09:12:10;;;;;;;12.50;6.35;;;18.70;82.20;;;;;;5021359;28;20083;-74
2021/07/04 09:14:45;;;;;;;10.38;5.72;;;18.60;82.50;;;;;;5029727;28;20033;-72
2021/07/04 09:17:18;;;;;;;10.75;5.22;;;18.60;83.00;;;;;;5031268;28;20159;-73
2021/07/04 09:20:00;;;;;;;8.65;5.55;;;18.60;83.00;;;;;;5027307;28;20089;-72
2021/07/04 09:22:40;;;;;;;11.32;6.10;;;18.40;83.10;;;;;;5011589;28;20049;-75
2021/07/04 09:25:12;;;;;;;10.65;7.05;;;18.20;83.40;;;;;;5020578;28;20510;-73
2021/07/04 09:27:40;;;;;;;10.07;7.57;;;18.10;84.00;;;;;;5018259;28;20033;-72
2021/07/04 09:30:11;;;;;;;11.57;8.07;;;18.10;84.50;;;;;;5016367;28;20034;-73
2021/07/04 09:32:37;;;;;;;12.40;9.27;;;18.00;84.80;;;;;;5012647;28;20041;-72
2021/07/04 09:35:11;;;;;;;12.45;9.25;;;18.00;84.90;;;;;;5026330;28;20131;-74
2021/07/04 09:37:42;;;;;;;11.68;8.85;;;18.10;85.80;;;;;;5019329;28;20045;-72
2021/07/04 09:40:09;;;;;;;11.45;7.45;;;18.10;85.80;;;;;;5022424;28;20033;-72
2021/07/04 09:42:55;;;;;;;9.73;6.40;;;18.10;85.40;;;;;;5018739;28;20104;-73
2021/07/04 09:45:22;;;;;;;8.27;5.72;;;18.00;84.90;;;;;;5015071;28;20037;-72
2021/07/04 09:47:56;;;;;;;9.10;5.68;;;18.00;85.30;;;;;;5016671;28;20067;-73
2021/07/04 09:50:22;;;;;;;11.00;6.07;;;18.00;85.30;;;;;;5027027;28;20042;-73
2021/07/04 09:53:02;;;;;;;10.63;6.82;;;17.90;85.40;;;;;;5019781;28;20034;-72
2021/07/04 09:55:30;;;;;;;10.13;7.05;;;17.90;85.40;;;;;;5010403;28;20080;-74
2021/07/04 09:57:58;;;;;;;13.63;7.47;;;17.90;85.50;;;;;;5010786;28;20060;-73
2021/07/04 10:00:26;;;;;;;11.43;7.32;;;17.80;85.30;;;;;;5025236;28;20207;-73
2021/07/04 10:03:06;;;;;;;13.73;8.90;;;17.90;85.70;;;;;;5012312;28;20477;-73
2021/07/04 10:05:32;;;;;;;11.80;9.05;;;17.90;85.90;;;;;;5015511;28;20039;-73
2021/07/04 10:07:58;;;;;;;11.75;8.93;;;17.90;86.10;;;;;;5011764;28;20044;-73
2021/07/04 10:10:24;;;;;;;11.93;8.98;;;17.90;86.20;;;;;;5017519;28;20400;-73
2021/07/04 10:12:49;;;;;;;12.30;10.15;;;17.90;86.60;;;;;;5013330;28;20030;-72
2021/07/04 10:15:15;;;;;;;11.02;8.60;;;17.80;86.90;;;;;;5016569;28;20496;-73
2021/07/04 10:17:42;;;;;;;15.25;9.27;;;17.90;87.10;;;;;;5014906;28;20483;-74
2021/07/04 10:20:09;;;;;;;12.05;8.50;;;17.90;87.30;;;;;;5018264;28;20477;-73
2021/07/04 10:22:36;;;;;;;9.13;7.43;;;17.80;87.40;;;;;;5010478;28;20384;-73
2021/07/04 10:25:05;;;;;;;10.80;7.32;;;17.80;87.40;;;;;;5026334;28;20072;-73
2021/07/04 10:27:34;;;;;;;11.35;7.20;;;17.80;87.50;;;;;;5030049;28;20040;-74
2021/07/04 10:30:01;;;;;;;9.43;6.57;;;17.80;87.40;;;;;;5014538;28;20507;-72
2021/07/04 10:32:26;;;;;;;11.45;5.97;;;17.90;87.20;;;;;;5015941;28;20037;-72
2021/07/04 10:34:53;;;;;;;9.07;6.10;;;17.80;87.00;;;;;;5010407;28;20385;-71
2021/07/04 10:37:31;;;;;;;8.85;6.15;;;17.70;86.80;;;;;;5014777;28;20040;-72
2021/07/04 10:40:18;;;;;;;8.50;4.78;;;17.80;87.10;;;;;;5011428;28;20042;-72
2021/07/04 10:42:44;;;;;;;8.02;4.60;;;17.70;87.00;;;;;;5010861;28;20088;-72
2021/07/04 10:45:33;;;;;;;6.35;3.88;;;17.60;86.80;;;;;;5018324;28;20435;-71
2021/07/04 10:48:27;;;;;;;6.53;3.30;;;17.60;86.70;;;;;;5019584;28;20041;-75
2021/07/04 10:51:15;;;;;;;9.57;3.78;;;17.70;86.80;;;;;;5018811;28;20392;-71
2021/07/04 10:53:45;;;;;;;6.43;3.53;;;17.60;86.70;;;;;;5016307;28;20048;-71
2021/07/04 10:56:32;;;;;;;7.53;4.57;;;17.60;86.50;;;;;;5011050;28;20084;-71
2021/07/04 10:59:08;;;;;;;8.00;4.80;;;17.60;86.60;;;;;;5009849;28;20038;-71
2021/07/04 11:01:52;;;;;;;7.40;4.20;;;17.60;86.70;;;;;;5019184;28;20030;-72
2021/07/04 11:04:33;;;;;;;7.32;4.15;;;17.60;86.80;;;;;;5008918;28;20076;-72
2021/07/04 11:07:00;;;;;;;9.02;5.00;;;17.70;86.70;;;;;;5011559;28;20038;-71
2021/07/04 11:10:00;;;;;;;9.27;5.88;;;17.80;86.70;;;;;;5010291;28;20062;-72
2021/07/04 11:12:36;;;;;;;9.07;5.63;;;17.70;86.50;;;;;;5010303;28;20121;-72
2021/07/04 11:15:11;;;;;;;9.40;5.35;;;17.80;86.70;;;;;;5024919;28;20036;-71
2021/07/04 11:18:04;;;;;;;8.77;4.57;;;17.70;86.60;;;;;;5009641;28;20042;-73
2021/07/04 11:20:40;;;;;;;7.18;3.92;;;17.70;86.90;;;;;;5009184;28;20191;-73
2021/07/04 11:23:26;;;;;;;7.53;3.35;;;17.70;86.50;;;;;;5015061;28;20500;-74
2021/07/04 11:25:56;;;;;;;6.63;3.60;;;17.70;85.90;;;;;;5010887;28;20112;-74
2021/07/04 11:28:23;;;;;;;6.07;3.03;;;17.70;86.40;;;;;;5019949;28;20048;-72
2021/07/04 11:30:59;;;;;;;5.85;2.70;;;17.80;86.30;;;;;;5025785;28;20075;-76
2021/07/04 11:33:45;;;;;;;8.55;3.10;;;17.80;86.10;;;;;;5017619;28;20037;-74
2021/07/04 11:36:20;;;;;;;4.40;2.30;;;17.80;86.20;;;;;;5015244;28;20062;-74
2021/07/04 11:38:50;;;;;;;5.68;3.03;;;17.90;85.90;;;;;;5009035;28;20038;-74
2021/07/04 11:41:28;;;;;;;4.60;2.50;;;18.00;85.90;;;;;;5008934;28;20092;-73
2021/07/04 11:44:06;;;;;;;5.57;2.67;;;18.10;86.00;;;;;;5010052;28;20037;-74
2021/07/04 11:46:34;;;;;;;5.20;2.70;;;18.20;85.90;;;;;;5016593;28;20046;-73
2021/07/04 11:49:03;;;;;;;5.43;2.53;;;18.30;85.10;;;;;;5021221;28;20044;-73
2021/07/04 11:51:42;;;;;;;4.78;2.60;;;18.30;84.80;;;;;;5025126;28;20546;-73
2021/07/04 11:54:12;;;;;;;5.63;2.72;;;18.50;84.40;;;;;;5015573;28;20407;-72
2021/07/04 11:56:40;;;;;;;6.68;3.03;;;18.60;84.50;;;;;;5019941;28;20033;-73
2021/07/04 11:59:21;;;;;;;6.22;3.25;;;18.70;84.70;;;;;;5016171;28;20037;-74
2021/07/04 12:01:54;;;;;;;5.38;2.60;;;18.80;84.30;;;;;;5017837;28;20478;-72
2021/07/04 12:04:33;;;;;;;3.90;2.20;;;19.00;84.20;;;;;;5021959;28;20488;-73
2021/07/04 12:07:02;;;;;;;5.85;2.30;;;19.10;83.50;;;;;;5010513;28;20448;-73
2021/07/04 12:09:37;;;;;;;6.22;2.38;;;19.20;82.90;;;;;;5010920;28;20049;-73
2021/07/04 12:12:03;;;;;;;4.72;2.05;;;19.30;83.10;;;;;;5014350;28;20041;-73
2021/07/04 12:14:35;;;;;;;5.15;2.08;;;19.50;83.50;;;;;;5012162;28;20053;-73
2021/07/04 12:17:23;;;;;;;3.08;1.90;;;19.60;82.20;;;;;;5008854;28;20034;-74
2021/07/04 12:20:06;;;;;;;5.03;2.25;;;19.70;82.50;;;;;;5010640;28;20448;-73
2021/07/04 12:22:38;;;;;;;5.53;2.53;;;19.70;82.10;;;;;;5020932;28;20030;-73
2021/07/04 12:25:11;;;;;;;5.40;2.42;;;19.80;82.80;;;;;;5023036;28;20494;-73
2021/07/04 12:27:43;;;;;;;3.70;1.85;;;19.90;82.40;;;;;;5019476;28;20032;-73
2021/07/04 12:30:16;;;;;;;5.05;1.95;;;20.10;81.20;;;;;;5024715;28;20045;-72
2021/07/04 12:33:02;;;;;;;3.83;2.00;;;20.20;81.30;;;;;;5010426;28;20080;-72
2021/07/04 12:35:28;;;;;;;3.65;2.20;;;20.20;80.10;;;;;;5009797;28;20311;-71
2021/07/04 12:37:57;;;;;;;3.50;1.83;;;20.10;81.10;;;;;;5015371;28;20480;-71
2021/07/04 12:40:35;;;;;;;3.45;1.88;;;20.10;79.70;;;;;;5014400;28;20562;-74